Time;durP1;ratioP1;P1;durP2;ratioP2;P2;SDS_P1;SDS_P2;PMS_P1;PMS_P2;Temp;Humidity;BMP_temperature;BMP_pressure;BME280_temperature;BME280_humidity;BME280_pressure;Samples;Min_cycle;Max_cycle;Signal;HPM_P1;HPM_P2
2023/04/30 00:00:52;;;;;;;17.40;15.23;;;16.30;44.30;;;;;;5094468;28;20679;-51
2023/04/30 00:03:17;;;;;;;17.90;15.73;;;16.40;44.30;;;;;;5094608;28;20187;-51
2023/04/30 00:05:43;;;;;;;16.67;14.97;;;16.40;44.30;;;;;;5094590;28;20172;-51
2023/04/30 00:08:10;;;;;;;19.53;17.10;;;16.40;44.30;;;;;;5094518;28;20174;-51
2023/04/30 00:10:35;;;;;;;21.42;16.45;;;16.40;44.20;;;;;;5094675;28;20192;-51
2023/04/30 00:13:01;;;;;;;17.47;15.50;;;16.30;44.30;;;;;;5094201;28;20286;-52
2023/04/30 00:15:27;;;;;;;22.47;16.83;;;16.30;44.30;;;;;;5094272;28;20203;-51
2023/04/30 00:17:52;;;;;;;18.03;15.30;;;16.30;44.30;;;;;;5094596;28;20668;-51
2023/04/30 00:20:18;;;;;;;17.80;15.37;;;16.30;44.30;;;;;;5094188;28;20233;-51
2023/04/30 00:22:44;;;;;;;19.13;16.70;;;16.30;44.30;;;;;;5094091;28;20175;-51
2023/04/30 00:25:10;;;;;;;17.00;14.97;;;16.30;44.30;;;;;;5094356;28;20172;-52
2023/04/30 00:27:35;;;;;;;17.48;14.07;;;16.30;44.40;;;;;;5094167;28;20200;-52
2023/04/30 00:30:01;;;;;;;16.17;14.37;;;16.20;44.20;;;;;;5094053;28;20635;-51
2023/04/30 00:32:27;;;;;;;17.27;11.20;;;16.20;44.10;;;;;;5093872;28;20164;-51
2023/04/30 00:34:53;;;;;;;18.03;11.20;;;16.20;43.80;;;;;;5094119;28;20659;-51
2023/04/30 00:37:18;;;;;;;14.73;11.17;;;16.20;43.50;;;;;;5094015;28;20170;-51
2023/04/30 00:39:44;;;;;;;9.80;8.53;;;16.10;43.30;;;;;;5093853;28;20184;-52
2023/04/30 00:42:10;;;;;;;13.20;8.83;;;16.00;42.90;;;;;;5093684;28;20167;-51
2023/04/30 00:44:35;;;;;;;12.57;8.00;;;16.00;42.70;;;;;;5094364;28;20489;-51
2023/04/30 00:47:01;;;;;;;12.00;8.70;;;15.90;42.40;;;;;;5093771;28;20172;-51
2023/04/30 00:49:27;;;;;;;13.00;8.20;;;15.90;42.50;;;;;;5093733;28;20341;-51
2023/04/30 00:51:53;;;;;;;9.80;8.20;;;15.90;42.40;;;;;;5093462;28;20172;-51
2023/04/30 00:54:20;;;;;;;8.55;7.65;;;15.80;42.30;;;;;;5093655;28;20172;-51
2023/04/30 00:56:46;;;;;;;8.52;7.72;;;15.80;42.30;;;;;;5093530;28;20234;-51
2023/04/30 00:59:13;;;;;;;8.23;7.25;;;15.70;42.20;;;;;;5093357;28;20918;-51
2023/04/30 01:01:39;;;;;;;9.80;7.30;;;15.60;42.00;;;;;;5093409;28;20164;-51
2023/04/30 01:04:05;;;;;;;8.25;7.40;;;15.60;42.80;;;;;;5093526;28;20164;-51
2023/04/30 01:06:31;;;;;;;7.57;6.70;;;15.50;42.10;;;;;;5093439;28;20540;-51
2023/04/30 01:08:57;;;;;;;11.45;8.45;;;15.50;42.10;;;;;;5093214;28;20924;-51
2023/04/30 01:11:47;;;;;;;10.07;7.85;;;15.40;42.10;;;;;;5092597;28;20223;-51
2023/04/30 01:14:24;;;;;;;9.90;8.65;;;15.40;41.80;;;;;;5093818;28;20165;-51
2023/04/30 01:17:07;;;;;;;11.15;7.78;;;15.30;41.90;;;;;;5093051;28;20187;-51
2023/04/30 01:19:43;;;;;;;10.65;7.85;;;15.30;42.10;;;;;;5093071;28;20194;-51
2023/04/30 01:22:43;;;;;;;10.57;7.60;;;15.20;42.10;;;;;;5092830;28;20186;-51
2023/04/30 01:25:33;;;;;;;8.65;7.50;;;15.20;42.00;;;;;;5093076;28;20176;-51
2023/04/30 01:28:05;;;;;;;9.20;7.13;;;15.20;42.10;;;;;;5093324;28;20176;-51
2023/04/30 01:30:32;;;;;;;9.70;7.43;;;15.10;42.00;;;;;;5092699;28;20207;-51
2023/04/30 01:32:58;;;;;;;8.93;7.30;;;15.10;42.10;;;;;;5092691;28;20217;-51
2023/04/30 01:35:31;;;;;;;12.68;8.05;;;15.10;42.00;;;;;;5092953;28;20199;-51
2023/04/30 01:38:08;;;;;;;7.75;6.68;;;15.10;42.00;;;;;;5092801;28;20493;-51
2023/04/30 01:40:53;;;;;;;8.50;6.88;;;15.00;42.00;;;;;;5092688;28;20214;-51
2023/04/30 01:43:37;;;;;;;8.75;6.75;;;14.90;41.90;;;;;;5092550;28;20168;-51
2023/04/30 01:46:27;;;;;;;9.00;7.68;;;14.80;42.00;;;;;;5092947;28;20195;-51
2023/04/30 01:49:17;;;;;;;10.55;7.45;;;14.70;42.10;;;;;;5092852;28;20171;-51
2023/04/30 01:51:45;;;;;;;12.40;9.18;;;14.60;42.30;;;;;;5092517;28;20159;-51
2023/04/30 01:54:23;;;;;;;11.27;10.07;;;14.50;42.60;;;;;;5092788;28;20309;-51
2023/04/30 01:57:03;;;;;;;12.95;10.98;;;14.50;43.20;;;;;;5092525;28;20187;-51
2023/04/30 01:59:34;;;;;;;16.20;11.85;;;14.50;43.10;;;;;;5092302;28;20203;-51
2023/04/30 02:02:34;;;;;;;14.20;10.70;;;14.40;43.20;;;;;;5092479;28;20175;-51
2023/04/30 02:05:00;;;;;;;13.40;10.45;;;14.40;43.30;;;;;;5092480;28;20175;-51
2023/04/30 02:07:38;;;;;;;13.53;11.57;;;14.30;43.60;;;;;;5092359;28;20216;-51
2023/04/30 02:10:05;;;;;;;12.85;11.55;;;14.30;43.70;;;;;;5092181;28;20187;-51
2023/04/30 02:12:30;;;;;;;13.48;11.18;;;14.20;43.90;;;;;;5092251;28;20172;-51
2023/04/30 02:14:56;;;;;;;13.17;11.80;;;14.20;44.10;;;;;;5092340;28;20179;-51
2023/04/30 02:17:22;;;;;;;16.33;11.70;;;14.10;44.90;;;;;;5092364;28;20224;-51
2023/04/30 02:19:47;;;;;;;12.77;11.33;;;14.10;44.20;;;;;;5092234;28;20211;-51
2023/04/30 02:22:13;;;;;;;12.10;10.63;;;14.10;44.20;;;;;;5091930;28;20524;-51
2023/04/30 02:24:39;;;;;;;13.73;12.10;;;14.00;44.20;;;;;;5092465;28;20171;-51
2023/04/30 02:27:05;;;;;;;13.40;11.20;;;14.00;44.40;;;;;;5092422;28;20625;-51
2023/04/30 02:29:30;;;;;;;14.63;11.40;;;13.90;44.40;;;;;;5092150;28;20282;-51
2023/04/30 02:31:59;;;;;;;10.70;9.60;;;13.90;44.40;;;;;;5091797;28;20191;-51
2023/04/30 02:34:25;;;;;;;11.55;10.35;;;13.90;44.40;;;;;;5092134;28;20183;-51
2023/04/30 02:36:51;;;;;;;11.20;9.30;;;13.80;44.30;;;;;;5091916;28;20192;-51
2023/04/30 02:39:16;;;;;;;11.67;9.57;;;13.80;44.20;;;;;;5092279;28;20926;-51
2023/04/30 02:41:42;;;;;;;12.10;9.10;;;13.80;44.20;;;;;;5091828;28;20532;-51
2023/04/30 02:44:08;;;;;;;10.17;8.87;;;13.80;44.20;;;;;;5092033;28;20176;-51
2023/04/30 02:46:33;;;;;;;12.03;10.37;;;13.80;44.10;;;;;;5092060;28;20183;-51
2023/04/30 02:48:59;;;;;;;11.10;9.40;;;13.70;44.20;;;;;;5092046;28;20567;-51
2023/04/30 02:51:25;;;;;;;11.00;9.80;;;13.70;44.10;;;;;;5091851;28;20251;-51
2023/04/30 02:53:51;;;;;;;9.25;8.27;;;13.70;44.20;;;;;;5091964;28;20272;-51
2023/04/30 02:56:17;;;;;;;13.33;9.03;;;13.60;44.00;;;;;;5092042;28;20616;-51
2023/04/30 02:58:42;;;;;;;8.23;7.30;;;13.60;44.00;;;;;;5091754;28;20176;-51
2023/04/30 03:01:08;;;;;;;10.27;8.03;;;13.60;44.00;;;;;;5091716;28;20192;-51
2023/04/30 03:03:34;;;;;;;12.43;8.50;;;13.50;44.00;;;;;;5091698;28;20176;-51
2023/04/30 03:06:00;;;;;;;10.93;9.83;;;13.40;44.70;;;;;;5092079;28;20207;-51
2023/04/30 03:08:26;;;;;;;8.70;7.30;;;13.40;44.10;;;;;;5091832;28;20582;-51
2023/04/30 03:10:52;;;;;;;11.50;8.00;;;13.40;44.20;;;;;;5091873;28;20252;-51
2023/04/30 03:13:17;;;;;;;8.80;7.83;;;13.30;44.20;;;;;;5091638;28;20176;-51
2023/04/30 03:15:43;;;;;;;10.80;7.47;;;13.30;44.20;;;;;;5091631;28;20218;-51
2023/04/30 03:18:10;;;;;;;9.93;7.20;;;13.20;44.10;;;;;;5091947;28;20179;-51
2023/04/30 03:20:35;;;;;;;8.45;6.20;;;13.20;44.10;;;;;;5091469;28;20500;-51
2023/04/30 03:23:02;;;;;;;9.97;7.73;;;13.20;44.10;;;;;;5091363;28;20329;-51
2023/04/30 03:25:27;;;;;;;8.15;6.45;;;13.10;44.20;;;;;;5091564;28;20414;-51
2023/04/30 03:27:53;;;;;;;8.07;6.23;;;13.10;44.10;;;;;;5091831;28;20179;-51
2023/04/30 03:30:19;;;;;;;6.77;5.70;;;13.10;44.00;;;;;;5091334;28;20210;-51
2023/04/30 03:32:45;;;;;;;8.37;6.67;;;13.00;43.90;;;;;;5091375;28;20255;-51
2023/04/30 03:35:10;;;;;;;8.77;5.77;;;13.00;43.90;;;;;;5095011;28;20440;-51
2023/04/30 03:37:36;;;;;;;8.13;6.33;;;13.00;43.90;;;;;;5095099;28;20420;-53
2023/04/30 03:40:03;;;;;;;6.33;5.73;;;12.90;44.00;;;;;;5094987;28;20196;-51
2023/04/30 03:42:29;;;;;;;7.38;5.47;;;12.80;43.90;;;;;;5094940;28;20164;-51
2023/04/30 03:44:55;;;;;;;10.33;5.37;;;12.80;43.90;;;;;;5095298;28;20528;-51
2023/04/30 03:47:20;;;;;;;6.50;5.83;;;12.80;44.00;;;;;;5094970;28;20297;-51
2023/04/30 03:49:53;;;;;;;13.70;6.20;;;12.80;44.10;;;;;;5095006;28;20192;-50
2023/04/30 03:52:19;;;;;;;6.50;5.32;;;12.70;44.20;;;;;;5094925;28;20176;-51
2023/04/30 03:54:45;;;;;;;6.80;6.10;;;12.70;44.20;;;;;;5094951;28;20545;-50
2023/04/30 03:57:12;;;;;;;10.43;5.80;;;12.70;44.30;;;;;;5094598;28;20691;-50
2023/04/30 03:59:39;;;;;;;6.30;5.43;;;12.80;44.20;;;;;;5094519;28;20199;-51
2023/04/30 04:02:07;;;;;;;8.30;6.10;;;12.80;44.20;;;;;;5094439;28;20195;-50
2023/04/30 04:04:33;;;;;;;7.05;5.82;;;12.70;44.10;;;;;;5094852;28;20164;-52
2023/04/30 04:07:01;;;;;;;6.77;5.27;;;12.80;44.10;;;;;;5094817;28;20206;-52
2023/04/30 04:09:27;;;;;;;7.18;5.72;;;12.80;44.20;;;;;;5094513;28;21029;-50
2023/04/30 04:11:53;;;;;;;5.90;5.13;;;12.70;44.20;;;;;;5094225;28;20225;-52
2023/04/30 04:14:18;;;;;;;12.50;5.77;;;12.70;44.00;;;;;;5094468;28;20176;-50
2023/04/30 04:16:45;;;;;;;7.13;4.77;;;12.70;44.10;;;;;;5094400;28;20271;-52
2023/04/30 04:19:14;;;;;;;5.97;4.53;;;12.80;44.00;;;;;;5094508;28;20280;-50
2023/04/30 04:21:40;;;;;;;7.50;5.55;;;12.80;44.00;;;;;;5092933;28;20281;-50
2023/04/30 04:24:07;;;;;;;5.77;4.50;;;12.80;44.00;;;;;;5094098;28;20695;-52
2023/04/30 04:26:35;;;;;;;7.57;5.32;;;12.80;43.70;;;;;;5094212;28;20164;-50
2023/04/30 04:29:02;;;;;;;5.57;4.55;;;12.70;43.70;;;;;;5094336;28;20180;-50
2023/04/30 04:31:28;;;;;;;7.45;5.63;;;12.70;44.00;;;;;;5093886;28;20187;-52
2023/04/30 04:33:57;;;;;;;7.13;6.07;;;12.70;44.10;;;;;;5093876;28;20182;-52
2023/04/30 04:36:26;;;;;;;7.80;5.50;;;12.70;44.10;;;;;;5094087;28;20212;-50
2023/04/30 04:38:53;;;;;;;6.55;4.80;;;12.80;44.00;;;;;;5093945;28;20719;-52
2023/04/30 04:41:18;;;;;;;8.15;5.18;;;12.80;44.00;;;;;;5093979;28;20195;-52
2023/04/30 04:43:44;;;;;;;8.60;5.33;;;12.80;43.90;;;;;;5093622;28;20263;-50
2023/04/30 04:46:10;;;;;;;9.33;6.00;;;12.90;43.90;;;;;;5092566;28;20406;-52
2023/04/30 04:48:36;;;;;;;6.50;5.60;;;12.90;43.80;;;;;;5093983;28;20418;-52
2023/04/30 04:51:02;;;;;;;7.70;6.27;;;12.90;43.60;;;;;;5093546;28;20204;-50
2023/04/30 04:53:27;;;;;;;8.20;5.57;;;12.90;43.70;;;;;;5093612;28;20205;-50
2023/04/30 04:55:53;;;;;;;10.33;6.63;;;13.00;43.60;;;;;;5093619;28;20481;-50
2023/04/30 04:58:19;;;;;;;7.63;6.05;;;13.00;43.70;;;;;;5093534;28;20577;-49
2023/04/30 05:00:45;;;;;;;10.70;5.73;;;13.10;43.60;;;;;;5093355;28;20336;-52
2023/04/30 05:03:13;;;;;;;6.97;5.50;;;13.10;43.50;;;;;;5093265;28;20902;-52
2023/04/30 05:05:38;;;;;;;7.28;5.30;;;13.10;43.40;;;;;;5093672;28;20195;-49
2023/04/30 05:08:04;;;;;;;8.80;5.53;;;13.20;43.50;;;;;;5093584;28;20175;-52
2023/04/30 05:10:30;;;;;;;5.63;4.73;;;13.10;43.40;;;;;;5093174;28;20556;-50
2023/04/30 05:12:56;;;;;;;6.53;5.20;;;13.10;43.40;;;;;;5093337;28;20410;-49
2023/04/30 05:15:22;;;;;;;6.00;5.10;;;13.10;43.40;;;;;;5093288;28;20191;-52
2023/04/30 05:17:47;;;;;;;8.27;7.23;;;13.10;43.40;;;;;;5093251;28;20187;-52
2023/04/30 05:20:13;;;;;;;8.43;5.73;;;13.10;43.50;;;;;;5093371;28;20188;-49
2023/04/30 05:22:39;;;;;;;5.90;5.33;;;13.20;43.60;;;;;;5093127;28;20689;-51
2023/04/30 05:25:05;;;;;;;8.33;5.83;;;13.20;43.50;;;;;;5093175;28;20222;-51
2023/04/30 05:27:31;;;;;;;7.50;6.00;;;13.20;43.30;;;;;;5093212;28;20175;-51
2023/04/30 05:29:56;;;;;;;5.23;4.63;;;13.20;43.00;;;;;;5092705;28;20195;-51
2023/04/30 05:32:22;;;;;;;8.63;5.00;;;13.20;42.80;;;;;;5092719;28;20172;-51
2023/04/30 05:34:48;;;;;;;7.23;5.70;;;13.10;43.00;;;;;;5092905;28;20160;-49
2023/04/30 05:37:16;;;;;;;8.43;5.30;;;13.00;42.90;;;;;;5092899;28;20461;-51
2023/04/30 05:39:42;;;;;;;11.57;4.93;;;12.90;43.20;;;;;;5092715;28;20215;-51
2023/04/30 05:42:07;;;;;;;6.23;5.00;;;12.90;43.10;;;;;;5092585;28;20873;-49
2023/04/30 05:44:33;;;;;;;8.70;5.20;;;13.00;43.40;;;;;;5092913;28;20179;-50
2023/04/30 05:46:59;;;;;;;9.57;5.03;;;13.00;43.40;;;;;;5092679;28;20178;-52
2023/04/30 05:49:26;;;;;;;8.50;5.67;;;13.10;43.40;;;;;;5092819;28;20195;-49
2023/04/30 05:51:51;;;;;;;9.98;5.07;;;13.30;43.40;;;;;;5092672;28;20260;-52
2023/04/30 05:54:17;;;;;;;8.03;4.97;;;13.30;42.60;;;;;;5092681;28;20229;-49
2023/04/30 05:56:43;;;;;;;11.70;5.50;;;13.40;42.60;;;;;;5092142;28;20196;-51
2023/04/30 05:59:09;;;;;;;6.77;4.93;;;13.40;42.80;;;;;;5092308;28;20406;-51
2023/04/30 06:01:34;;;;;;;12.27;5.00;;;13.50;42.70;;;;;;5092451;28;20524;-49
2023/04/30 06:04:00;;;;;;;6.63;5.10;;;13.60;42.90;;;;;;5092428;28;20172;-49
2023/04/30 06:06:27;;;;;;;5.87;4.40;;;13.80;42.90;;;;;;5092535;28;20176;-52
2023/04/30 06:08:52;;;;;;;9.27;5.10;;;14.00;42.30;;;;;;5092353;28;20675;-49
2023/04/30 06:11:18;;;;;;;8.97;4.83;;;14.10;41.90;;;;;;5092151;28;20235;-52
2023/04/30 06:13:47;;;;;;;6.50;4.27;;;14.20;41.60;;;;;;5091980;28;20198;-52
2023/04/30 06:16:12;;;;;;;4.55;3.65;;;14.30;41.50;;;;;;5092162;28;20279;-50
2023/04/30 06:18:38;;;;;;;8.40;4.17;;;14.30;41.00;;;;;;5092219;28;20259;-52
2023/04/30 06:21:04;;;;;;;6.13;4.33;;;14.30;41.00;;;;;;5092091;28;20675;-49
2023/04/30 06:23:30;;;;;;;7.30;5.13;;;14.30;41.50;;;;;;5092006;28;20194;-52
2023/04/30 06:25:55;;;;;;;4.20;3.80;;;14.40;41.00;;;;;;5092357;28;20196;-49
2023/04/30 06:28:21;;;;;;;6.67;4.63;;;14.50;41.00;;;;;;5092069;28;20674;-51
2023/04/30 06:30:47;;;;;;;6.93;4.00;;;14.60;41.00;;;;;;5092093;28;20293;-51
2023/04/30 06:33:13;;;;;;;8.30;4.17;;;14.70;40.80;;;;;;5091835;28;20164;-49
2023/04/30 06:35:39;;;;;;;6.73;4.50;;;14.70;40.00;;;;;;5092101;28;20740;-51
2023/04/30 06:38:05;;;;;;;8.55;5.15;;;14.70;39.70;;;;;;5092007;28;20596;-51
2023/04/30 06:40:30;;;;;;;4.30;3.83;;;14.70;39.90;;;;;;5090714;28;20220;-50
2023/04/30 06:42:56;;;;;;;9.07;4.67;;;14.70;39.50;;;;;;5092011;28;20654;-52
2023/04/30 06:45:22;;;;;;;6.73;5.03;;;14.90;40.30;;;;;;5091911;28;20172;-52
2023/04/30 06:47:48;;;;;;;7.97;4.20;;;15.00;40.00;;;;;;5092103;28;20168;-50
2023/04/30 06:50:14;;;;;;;5.57;3.97;;;15.20;40.00;;;;;;5092079;28;20786;-52
2023/04/30 06:52:40;;;;;;;9.00;4.45;;;15.30;39.10;;;;;;5091713;28;20637;-50
2023/04/30 06:55:07;;;;;;;9.27;4.97;;;15.40;38.60;;;;;;5091708;28;20187;-50
2023/04/30 06:57:33;;;;;;;5.82;4.00;;;15.40;38.50;;;;;;5092075;28;20488;-52
2023/04/30 06:59:59;;;;;;;10.43;4.77;;;15.30;38.60;;;;;;5091965;28;20647;-52
2023/04/30 07:02:25;;;;;;;10.02;5.03;;;15.30;38.50;;;;;;5091920;28;20195;-49
2023/04/30 07:04:50;;;;;;;6.30;4.50;;;15.30;38.90;;;;;;5091807;28;20172;-50
2023/04/30 07:07:16;;;;;;;8.80;3.87;;;15.20;38.80;;;;;;5091778;28;20175;-52
2023/04/30 07:09:42;;;;;;;6.77;4.30;;;15.20;38.30;;;;;;5094724;28;20559;-52
2023/04/30 07:12:07;;;;;;;7.23;4.60;;;15.20;39.00;;;;;;5095257;28;20182;-50
2023/04/30 07:14:33;;;;;;;9.10;5.10;;;15.40;39.10;;;;;;5095532;28;20168;-49
2023/04/30 07:16:59;;;;;;;5.10;4.23;;;15.50;38.90;;;;;;5095441;28;20204;-52
2023/04/30 07:19:25;;;;;;;6.40;5.18;;;15.50;38.40;;;;;;5095525;28;20188;-50
2023/04/30 07:21:51;;;;;;;7.55;5.10;;;15.60;38.60;;;;;;5095223;28;20179;-50
2023/04/30 07:24:17;;;;;;;7.97;4.00;;;15.60;38.20;;;;;;5095411;28;20239;-50
2023/04/30 07:26:43;;;;;;;8.10;5.30;;;15.60;38.70;;;;;;5095313;28;20417;-52
2023/04/30 07:29:09;;;;;;;7.77;4.70;;;15.70;39.10;;;;;;5095465;28;20171;-50
2023/04/30 07:31:34;;;;;;;5.20;4.70;;;15.90;38.00;;;;;;5095025;28;20214;-50
2023/04/30 07:34:00;;;;;;;6.27;5.57;;;15.90;38.70;;;;;;5095285;28;20192;-52
2023/04/30 07:36:26;;;;;;;6.00;5.10;;;16.10;38.70;;;;;;5095162;28;20687;-51
2023/04/30 07:38:52;;;;;;;15.20;6.20;;;16.30;38.20;;;;;;5095066;28;20242;-50
2023/04/30 07:41:18;;;;;;;5.27;4.67;;;16.40;37.70;;;;;;5094892;28;20437;-52
2023/04/30 07:43:43;;;;;;;7.90;4.60;;;16.50;37.50;;;;;;5095122;28;20504;-51
2023/04/30 07:46:09;;;;;;;7.53;4.10;;;16.50;37.70;;;;;;5094871;28;20202;-50
2023/04/30 07:48:36;;;;;;;6.93;4.33;;;16.70;38.40;;;;;;5095116;28;20414;-52
2023/04/30 07:51:03;;;;;;;6.03;4.20;;;17.00;37.10;;;;;;5094815;28;20207;-52
2023/04/30 07:53:29;;;;;;;6.40;5.40;;;17.00;37.10;;;;;;5094866;28;20204;-50
2023/04/30 07:55:55;;;;;;;10.13;4.53;;;17.10;37.20;;;;;;5094719;28;20671;-52
2023/04/30 07:58:21;;;;;;;5.97;4.23;;;17.20;35.80;;;;;;5095070;28;20417;-50
2023/04/30 08:00:47;;;;;;;8.47;5.00;;;17.20;35.50;;;;;;5094829;28;20328;-50
2023/04/30 08:03:12;;;;;;;8.40;5.00;;;17.10;35.50;;;;;;5094555;28;20172;-49
2023/04/30 08:05:38;;;;;;;8.10;4.90;;;17.00;36.20;;;;;;5094755;28;20850;-52
2023/04/30 08:08:04;;;;;;;7.53;4.00;;;17.00;36.30;;;;;;5094451;28;20171;-49
2023/04/30 08:10:30;;;;;;;5.13;3.60;;;17.10;36.80;;;;;;5094702;28;20547;-52
2023/04/30 08:12:56;;;;;;;5.70;4.95;;;17.30;36.90;;;;;;5094413;28;20176;-52
2023/04/30 08:15:22;;;;;;;18.50;5.20;;;17.30;35.20;;;;;;5094390;28;20171;-51
2023/04/30 08:17:49;;;;;;;8.02;5.00;;;17.10;34.60;;;;;;5094394;28;20524;-52
2023/04/30 08:20:15;;;;;;;9.23;4.90;;;16.90;35.40;;;;;;5094043;28;20219;-52
2023/04/30 08:22:41;;;;;;;8.70;4.32;;;16.90;34.10;;;;;;5094000;28;20245;-49
2023/04/30 08:25:11;;;;;;;5.35;4.82;;;17.00;36.10;;;;;;5094085;28;20215;-52
2023/04/30 08:27:37;;;;;;;11.13;5.00;;;17.30;36.50;;;;;;5094524;28;20172;-52
2023/04/30 08:30:03;;;;;;;6.68;4.50;;;17.60;36.90;;;;;;5094107;28;20192;-50
2023/04/30 08:32:29;;;;;;;6.00;4.65;;;17.80;36.10;;;;;;5093850;28;20680;-50
2023/04/30 08:34:55;;;;;;;6.03;4.27;;;17.80;34.50;;;;;;5094242;28;20275;-52
2023/04/30 08:37:21;;;;;;;6.03;4.70;;;17.80;35.10;;;;;;5094042;28;20202;-49
2023/04/30 08:39:46;;;;;;;12.23;5.80;;;17.90;35.30;;;;;;5094134;28;20981;-52
2023/04/30 08:42:14;;;;;;;6.30;4.63;;;18.10;34.40;;;;;;5093796;28;20628;-52
2023/04/30 08:44:42;;;;;;;5.72;4.28;;;18.20;34.70;;;;;;5093794;28;20636;-49
2023/04/30 08:47:13;;;;;;;6.32;5.43;;;18.40;34.10;;;;;;5093970;28;20203;-50
2023/04/30 08:49:40;;;;;;;6.10;4.55;;;18.60;33.40;;;;;;5093689;28;20192;-52
2023/04/30 08:52:06;;;;;;;6.35;4.40;;;18.60;33.50;;;;;;5093333;28;20222;-52
2023/04/30 08:54:34;;;;;;;10.60;3.80;;;18.50;33.10;;;;;;5093677;28;20187;-52
2023/04/30 08:57:00;;;;;;;8.93;4.63;;;18.50;32.70;;;;;;5093455;28;20256;-52
2023/04/30 08:59:26;;;;;;;7.97;4.72;;;18.60;33.90;;;;;;5093321;28;20668;-52
2023/04/30 09:01:52;;;;;;;10.25;4.32;;;18.70;34.10;;;;;;5093460;28;20249;-52
2023/04/30 09:04:18;;;;;;;6.63;4.47;;;18.70;33.60;;;;;;5093432;28;20220;-52
2023/04/30 09:06:43;;;;;;;9.90;4.97;;;18.80;33.80;;;;;;5093213;28;20183;-50
2023/04/30 09:09:12;;;;;;;5.83;3.80;;;18.90;33.50;;;;;;5093386;28;20180;-52
2023/04/30 09:11:38;;;;;;;5.28;3.92;;;18.90;30.50;;;;;;5093098;28;20172;-52
2023/04/30 09:14:04;;;;;;;10.75;4.43;;;18.90;32.10;;;;;;5093002;28;20632;-49
2023/04/30 09:16:48;;;;;;;5.45;4.10;;;19.10;32.90;;;;;;5093072;28;20291;-52
2023/04/30 09:19:28;;;;;;;5.63;4.30;;;19.30;31.60;;;;;;5093004;28;20275;-50
2023/04/30 09:21:55;;;;;;;9.60;4.13;;;19.00;31.20;;;;;;5092871;28;20624;-52
2023/04/30 09:24:21;;;;;;;5.82;4.28;;;18.80;30.70;;;;;;5093199;28;20187;-52
2023/04/30 09:26:47;;;;;;;6.10;4.40;;;18.70;32.70;;;;;;5093348;28;20214;-50
2023/04/30 09:29:13;;;;;;;9.07;3.95;;;18.80;31.70;;;;;;5093174;28;20769;-50
2023/04/30 09:31:44;;;;;;;5.70;3.70;;;18.90;32.10;;;;;;5092085;28;20183;-52
2023/04/30 09:34:10;;;;;;;9.25;4.90;;;19.00;31.10;;;;;;5092863;28;20186;-52
2023/04/30 09:36:36;;;;;;;6.70;4.57;;;19.10;30.20;;;;;;5092770;28;20687;-50
2023/04/30 09:39:12;;;;;;;7.78;4.63;;;19.00;31.10;;;;;;5092919;28;20175;-52
2023/04/30 09:41:38;;;;;;;6.43;4.20;;;18.70;30.60;;;;;;5092670;28;20651;-53
2023/04/30 09:44:04;;;;;;;7.97;5.30;;;18.60;30.30;;;;;;5092319;28;20179;-50
2023/04/30 09:46:31;;;;;;;6.70;4.70;;;18.60;32.20;;;;;;5092989;28;20183;-53
2023/04/30 09:49:02;;;;;;;5.90;3.88;;;18.90;32.10;;;;;;5092634;28;20437;-53
2023/04/30 09:51:29;;;;;;;6.97;4.30;;;19.20;30.60;;;;;;5092576;28;20156;-51
2023/04/30 09:53:55;;;;;;;4.28;3.75;;;19.20;29.80;;;;;;5092303;28;20204;-50
2023/04/30 09:56:23;;;;;;;4.40;4.00;;;19.10;30.60;;;;;;5092520;28;20242;-50
2023/04/30 09:58:54;;;;;;;6.95;4.50;;;19.00;28.40;;;;;;5092405;28;20417;-50
2023/04/30 10:01:21;;;;;;;6.00;4.70;;;18.90;29.90;;;;;;5092549;28;20195;-50
2023/04/30 10:03:49;;;;;;;4.75;4.00;;;18.90;30.00;;;;;;5092305;28;20176;-52
2023/04/30 10:06:17;;;;;;;7.78;5.80;;;19.30;31.50;;;;;;5092456;28;20184;-51
2023/04/30 10:08:52;;;;;;;11.63;4.57;;;19.50;29.40;;;;;;5092587;28;20180;-50
2023/04/30 10:11:20;;;;;;;7.63;5.95;;;19.30;28.40;;;;;;5092094;28;20215;-52
2023/04/30 10:13:55;;;;;;;3.90;3.30;;;19.10;30.10;;;;;;5090664;28;20540;-50
2023/04/30 10:16:46;;;;;;;7.68;3.90;;;19.00;28.30;;;;;;5092165;28;20199;-52
2023/04/30 10:19:28;;;;;;;4.35;3.95;;;19.10;28.20;;;;;;5092378;28;20241;-50
2023/04/30 10:21:54;;;;;;;6.50;4.55;;;19.50;30.70;;;;;;5092209;28;20160;-52
2023/04/30 10:24:20;;;;;;;9.70;4.25;;;19.70;30.40;;;;;;5092286;28;20217;-50
2023/04/30 10:26:47;;;;;;;4.68;3.78;;;19.90;30.00;;;;;;5092208;28;20703;-53
2023/04/30 10:29:14;;;;;;;7.97;3.63;;;19.90;29.70;;;;;;5092019;28;20248;-53
2023/04/30 10:31:48;;;;;;;6.57;4.18;;;19.90;29.90;;;;;;5091831;28;20659;-50
2023/04/30 10:34:20;;;;;;;3.95;3.53;;;20.00;28.00;;;;;;5092069;28;20700;-51
2023/04/30 10:36:53;;;;;;;5.25;3.85;;;20.20;28.70;;;;;;5091898;28;20204;-53
2023/04/30 10:39:26;;;;;;;6.90;4.50;;;20.50;28.80;;;;;;5091869;28;20793;-50
2023/04/30 10:42:00;;;;;;;7.00;3.70;;;20.70;28.90;;;;;;5091812;28;20199;-53
2023/04/30 10:44:26;;;;;;;9.35;6.05;;;20.70;26.80;;;;;;5094856;28;20284;-52
2023/04/30 10:47:01;;;;;;;4.00;3.03;;;20.60;27.10;;;;;;5096466;28;20176;-50
2023/04/30 10:49:27;;;;;;;6.20;4.60;;;20.50;26.60;;;;;;5096412;28;20261;-50
2023/04/30 10:51:53;;;;;;;6.43;4.10;;;20.10;25.80;;;;;;5096101;28;20274;-51
2023/04/30 10:54:30;;;;;;;5.10;3.70;;;19.90;27.40;;;;;;5096104;28;20195;-50
2023/04/30 10:57:20;;;;;;;10.27;3.72;;;20.00;26.50;;;;;;5095806;28;20226;-50
2023/04/30 10:59:53;;;;;;;6.15;4.80;;;20.10;28.10;;;;;;5095250;28;20257;-51
2023/04/30 11:02:19;;;;;;;5.30;4.05;;;20.50;30.50;;;;;;5095502;28;20183;-53
2023/04/30 11:05:06;;;;;;;4.67;3.33;;;20.60;28.60;;;;;;5095781;28;20164;-53
2023/04/30 11:07:32;;;;;;;7.30;3.72;;;20.70;25.80;;;;;;5095937;28;20398;-53
2023/04/30 11:10:00;;;;;;;6.72;3.30;;;20.70;26.80;;;;;;5095587;28;20226;-53
2023/04/30 11:12:29;;;;;;;10.07;5.85;;;20.70;25.30;;;;;;5095701;28;20207;-51
2023/04/30 11:15:06;;;;;;;4.85;4.45;;;20.90;26.90;;;;;;5095707;28;20182;-53
2023/04/30 11:17:33;;;;;;;5.40;4.13;;;21.00;25.10;;;;;;5095726;28;20197;-52
2023/04/30 11:20:00;;;;;;;4.30;3.90;;;20.80;25.30;;;;;;5095363;28;20196;-51
2023/04/30 11:22:28;;;;;;;8.30;3.38;;;20.80;24.60;;;;;;5095400;28;20203;-51
2023/04/30 11:24:57;;;;;;;5.15;3.15;;;20.70;25.80;;;;;;5095659;28;20172;-53
2023/04/30 11:27:27;;;;;;;6.20;3.20;;;20.90;25.30;;;;;;5095600;28;20194;-51
2023/04/30 11:29:54;;;;;;;4.68;3.55;;;20.90;24.70;;;;;;5095273;28;20199;-52
2023/04/30 11:32:21;;;;;;;6.68;2.97;;;20.80;26.50;;;;;;5094946;28;20172;-53
2023/04/30 11:34:47;;;;;;;5.43;3.17;;;21.00;28.60;;;;;;5094010;28;20184;-51
2023/04/30 11:37:19;;;;;;;9.25;6.30;;;21.40;29.90;;;;;;5095181;28;20232;-54
2023/04/30 11:39:47;;;;;;;6.50;4.22;;;21.90;27.70;;;;;;5095112;28;20605;-52
2023/04/30 11:42:17;;;;;;;6.07;3.00;;;22.00;24.90;;;;;;5095179;28;20233;-52
2023/04/30 11:44:44;;;;;;;6.03;4.18;;;22.20;25.20;;;;;;5095369;28;20181;-52
2023/04/30 11:47:11;;;;;;;6.60;3.78;;;22.20;25.10;;;;;;5094817;28;20184;-54
2023/04/30 11:49:37;;;;;;;7.30;4.63;;;22.30;26.00;;;;;;5095072;28;20277;-51
2023/04/30 11:52:03;;;;;;;6.20;2.60;;;22.50;24.30;;;;;;5094876;28;20452;-53
2023/04/30 11:54:32;;;;;;;6.60;3.50;;;22.60;22.60;;;;;;5094605;28;20762;-51
2023/04/30 11:57:02;;;;;;;3.60;2.67;;;22.70;25.80;;;;;;5094960;28;20525;-53
2023/04/30 11:59:29;;;;;;;4.63;2.80;;;22.90;26.50;;;;;;5094617;28;20560;-51
2023/04/30 12:01:56;;;;;;;6.17;4.10;;;23.10;23.50;;;;;;5094320;28;20899;-50
2023/04/30 12:04:21;;;;;;;6.40;2.90;;;23.10;24.20;;;;;;5094864;28;20402;-53
2023/04/30 12:06:47;;;;;;;5.50;3.30;;;23.00;24.80;;;;;;5094748;28;20441;-53
2023/04/30 12:09:13;;;;;;;5.20;3.43;;;23.00;24.00;;;;;;5094532;28;20172;-53
2023/04/30 12:11:39;;;;;;;7.07;6.37;;;23.00;24.00;;;;;;5094771;28;20406;-53
2023/04/30 12:14:09;;;;;;;4.37;3.10;;;23.20;24.40;;;;;;5094402;28;20406;-53
2023/04/30 12:16:51;;;;;;;6.60;3.37;;;23.20;23.70;;;;;;5094633;28;20200;-53
2023/04/30 12:19:23;;;;;;;4.07;3.10;;;23.20;22.60;;;;;;5094340;28;20417;-53
2023/04/30 12:21:50;;;;;;;3.60;2.80;;;23.30;25.50;;;;;;5094170;28;20410;-53
2023/04/30 12:24:18;;;;;;;5.67;3.67;;;23.50;24.10;;;;;;5094323;28;20402;-53
2023/04/30 12:26:44;;;;;;;5.60;3.30;;;23.90;23.80;;;;;;5094139;28;20468;-53
2023/04/30 12:29:15;;;;;;;5.70;3.67;;;23.80;23.70;;;;;;5094016;28;20493;-53
2023/04/30 12:31:42;;;;;;;5.80;3.00;;;23.90;25.00;;;;;;5093926;28;20426;-52
2023/04/30 12:34:12;;;;;;;5.90;3.20;;;24.10;24.20;;;;;;5094007;28;20414;-53
2023/04/30 12:36:41;;;;;;;4.83;3.10;;;24.20;18.90;;;;;;5093993;28;20802;-53
2023/04/30 12:39:08;;;;;;;7.10;2.63;;;23.80;19.30;;;;;;5093823;28;20406;-52
2023/04/30 12:41:40;;;;;;;5.40;3.03;;;23.60;21.80;;;;;;5093980;28;20435;-53
2023/04/30 12:44:20;;;;;;;6.20;3.60;;;23.60;20.60;;;;;;5093740;28;20441;-53
2023/04/30 12:46:47;;;;;;;3.50;2.53;;;23.60;22.80;;;;;;5093837;28;20886;-53